createdAt,value
2018-05-26T00:01:05.992Z,15.64
2018-05-26T00:03:33.675Z,15.82
2018-05-26T00:06:01.144Z,15.84
2018-05-26T00:08:28.620Z,15.76
2018-05-26T00:10:56.130Z,15.93
2018-05-26T00:13:23.598Z,15.96
2018-05-26T00:15:51.091Z,15.92
2018-05-26T00:18:18.551Z,15.95
2018-05-26T00:20:46.042Z,15.83
2018-05-26T00:23:13.547Z,15.90
2018-05-26T00:25:41.020Z,15.93
2018-05-26T00:28:08.532Z,16.01
2018-05-26T00:30:36.016Z,15.85
2018-05-26T00:36:33.836Z,16.13
2018-05-26T00:39:01.340Z,16.19
2018-05-26T00:41:28.826Z,16.23
2018-05-26T00:43:56.303Z,16.27
2018-05-26T00:46:23.796Z,16.22
2018-05-26T00:48:51.275Z,16.33
2018-05-26T00:51:21.571Z,16.29
2018-05-26T00:53:49.065Z,16.10
2018-05-26T00:56:16.811Z,16.09
2018-05-26T00:58:44.517Z,16.23
2018-05-26T01:01:12.311Z,16.29
2018-05-26T01:03:39.809Z,16.33
2018-05-26T01:06:07.300Z,16.18
2018-05-26T01:08:34.788Z,16.12
2018-05-26T01:11:02.264Z,16.22
2018-05-26T01:13:29.776Z,16.09
2018-05-26T01:15:57.360Z,16.17
2018-05-26T01:18:24.856Z,16.46
2018-05-26T01:20:52.339Z,16.28
2018-05-26T01:23:19.841Z,16.44
2018-05-26T01:25:47.937Z,16.52
2018-05-26T01:28:15.445Z,16.31
2018-05-26T01:30:42.924Z,16.20
2018-05-26T01:33:10.432Z,16.13
2018-05-26T01:35:37.910Z,16.26
2018-05-26T01:38:05.412Z,16.37
2018-05-26T01:40:32.893Z,16.31
2018-05-26T01:43:00.613Z,16.22
2018-05-26T01:45:28.097Z,16.09
2018-05-26T01:47:55.580Z,15.91
2018-05-26T01:50:23.078Z,16.14
2018-05-26T01:52:51.389Z,16.30
2018-05-26T01:55:18.876Z,16.24
2018-05-26T01:57:46.353Z,16.29
2018-05-26T02:00:13.849Z,16.44
2018-05-26T02:02:41.335Z,16.41
2018-05-26T02:05:08.849Z,16.36
2018-05-26T02:07:36.327Z,16.38
2018-05-26T02:10:03.824Z,16.60
2018-05-26T02:12:31.303Z,16.58
2018-05-26T02:14:58.799Z,16.65
2018-05-26T02:17:26.341Z,16.63
2018-05-26T02:19:53.853Z,16.39
2018-05-26T02:22:21.338Z,16.37
2018-05-26T02:24:48.831Z,16.51
2018-05-26T02:27:16.319Z,16.48
2018-05-26T02:29:43.831Z,16.62
2018-05-26T02:32:11.296Z,16.65
2018-05-26T02:34:38.799Z,16.49
2018-05-26T02:37:06.294Z,16.59
2018-05-26T02:39:33.794Z,16.30
2018-05-26T02:42:01.276Z,16.50
2018-05-26T02:44:28.789Z,16.46
2018-05-26T02:46:56.259Z,16.57
2018-05-26T02:49:23.760Z,16.44
2018-05-26T02:51:51.241Z,16.69
2018-05-26T02:54:18.736Z,16.44
2018-05-26T02:56:46.218Z,16.41
2018-05-26T02:59:13.712Z,16.29
2018-05-26T03:01:41.197Z,16.20
2018-05-26T03:04:08.155Z,16.35
2018-05-26T03:06:41.156Z,16.32
2018-05-26T03:09:14.028Z,16.42
2018-05-26T03:11:47.001Z,16.45
2018-05-26T03:14:20.000Z,16.58
2018-05-26T03:16:51.346Z,16.34
2018-05-26T03:19:18.843Z,16.22
2018-05-26T03:21:46.325Z,16.57
2018-05-26T03:24:13.824Z,16.78
2018-05-26T03:26:41.299Z,16.36
2018-05-26T03:29:08.801Z,16.31
2018-05-26T03:31:36.275Z,16.38
2018-05-26T03:34:03.759Z,16.26
2018-05-26T03:36:31.263Z,16.24
2018-05-26T03:38:58.737Z,16.23
2018-05-26T03:41:26.227Z,16.51
2018-05-26T03:43:53.701Z,16.37
2018-05-26T03:46:21.192Z,16.51
2018-05-26T03:48:48.671Z,16.68
2018-05-26T03:51:16.167Z,16.72
2018-05-26T03:53:43.646Z,16.60
2018-05-26T03:56:22.882Z,16.47
2018-05-26T03:59:02.074Z,16.58
2018-05-26T04:01:29.563Z,16.45
2018-05-26T04:03:57.051Z,16.37
2018-05-26T04:06:24.543Z,16.44
2018-05-26T04:08:52.023Z,16.54
2018-05-26T04:11:19.813Z,16.31
2018-05-26T04:13:47.302Z,16.44
2018-05-26T04:16:14.780Z,16.68
2018-05-26T04:18:42.289Z,16.62
2018-05-26T04:21:10.399Z,16.59
2018-05-26T04:23:37.893Z,16.73
2018-05-26T04:26:05.378Z,16.78
2018-05-26T04:28:32.894Z,16.54
2018-05-26T04:31:00.367Z,16.69
2018-05-26T04:33:27.853Z,16.82
2018-05-26T04:35:55.364Z,16.70
2018-05-26T04:38:22.873Z,16.92
2018-05-26T04:40:50.379Z,16.80
2018-05-26T04:43:17.864Z,17.11
2018-05-26T04:45:45.340Z,17.19
2018-05-26T04:48:13.408Z,17.44
2018-05-26T04:50:40.887Z,17.27
2018-05-26T04:53:08.375Z,17.09
2018-05-26T04:55:35.849Z,17.73
2018-05-26T04:58:03.324Z,17.80
2018-05-26T05:00:30.815Z,17.91
2018-05-26T05:02:58.283Z,17.92
2018-05-26T05:05:25.798Z,17.68
2018-05-26T05:07:53.277Z,17.79
2018-05-26T05:10:20.747Z,17.80
2018-05-26T05:12:48.241Z,18.08
2018-05-26T05:15:15.711Z,18.18
2018-05-26T05:17:43.206Z,17.99
2018-05-26T05:20:10.683Z,18.38
2018-05-26T05:22:38.156Z,17.68
2018-05-26T05:25:05.649Z,17.78
2018-05-26T05:27:33.139Z,18.38
2018-05-26T05:30:00.616Z,18.64
2018-05-26T05:32:28.148Z,18.75
2018-05-26T05:34:55.608Z,18.67
2018-05-26T05:37:23.078Z,18.66
2018-05-26T05:39:50.553Z,18.74
2018-05-26T05:42:18.035Z,18.44
2018-05-26T05:44:45.808Z,18.67
2018-05-26T05:47:13.300Z,18.79
2018-05-26T05:49:40.758Z,19.02
2018-05-26T05:52:08.223Z,18.83
2018-05-26T05:54:35.708Z,18.71
2018-05-26T05:57:03.177Z,18.72
2018-05-26T05:59:30.667Z,18.77
2018-05-26T06:01:58.133Z,18.20
2018-05-26T06:04:25.611Z,18.34
2018-05-26T06:06:53.096Z,18.91
2018-05-26T06:09:20.570Z,19.09
2018-05-26T06:11:48.059Z,18.76
2018-05-26T06:14:15.528Z,18.52
2018-05-26T06:16:43.002Z,18.95
2018-05-26T06:19:10.499Z,18.96
2018-05-26T06:21:37.975Z,19.22
2018-05-26T06:24:05.459Z,19.46
2018-05-26T06:26:32.931Z,19.01
2018-05-26T06:29:00.399Z,18.51
2018-05-26T06:31:27.899Z,19.14
2018-05-26T06:33:55.366Z,19.24
2018-05-26T06:36:22.851Z,18.77
2018-05-26T06:38:50.332Z,19.35
2018-05-26T06:41:18.079Z,19.20
2018-05-26T06:43:45.567Z,19.07
2018-05-26T06:46:13.412Z,19.22
2018-05-26T06:48:40.944Z,19.29
2018-05-26T06:51:08.421Z,19.39
2018-05-26T06:53:36.148Z,19.37
2018-05-26T06:56:03.632Z,19.32
2018-05-26T06:58:31.103Z,19.33
2018-05-26T07:00:58.603Z,19.54
2018-05-26T07:03:26.076Z,19.71
2018-05-26T07:05:53.551Z,19.57
2018-05-26T07:08:21.045Z,19.71
2018-05-26T07:10:48.516Z,19.68
2018-05-26T07:13:16.019Z,19.75
2018-05-26T07:15:43.501Z,19.66
2018-05-26T07:18:10.975Z,19.99
2018-05-26T07:20:38.465Z,20.30
2018-05-26T07:23:05.932Z,20.47
2018-05-26T07:25:34.312Z,20.37
2018-05-26T07:28:01.780Z,20.00
2018-05-26T07:30:29.277Z,19.67
2018-05-26T07:32:56.748Z,19.72
2018-05-26T07:35:24.218Z,19.66
2018-05-26T07:37:51.716Z,19.93
2018-05-26T07:40:19.189Z,20.09
2018-05-26T07:42:46.678Z,20.23
2018-05-26T07:45:14.160Z,20.48
2018-05-26T07:47:41.661Z,20.25
2018-05-26T07:50:09.134Z,20.18
2018-05-26T07:52:36.597Z,20.33
2018-05-26T07:55:04.079Z,20.56
2018-05-26T07:57:31.557Z,20.42
2018-05-26T07:59:59.043Z,20.70
2018-05-26T08:02:26.519Z,20.68
2018-05-26T08:04:53.984Z,20.90
2018-05-26T08:07:21.468Z,20.99
2018-05-26T08:09:48.933Z,21.20
2018-05-26T08:12:16.443Z,21.24
2018-05-26T08:14:44.212Z,21.24
2018-05-26T08:17:11.742Z,21.64
2018-05-26T08:19:39.187Z,21.29
2018-05-26T08:22:06.652Z,21.67
2018-05-26T08:24:34.142Z,21.36
2018-05-26T08:27:01.619Z,21.48
2018-05-26T08:29:29.263Z,21.88
2018-05-26T08:31:56.729Z,21.24
2018-05-26T08:34:24.200Z,20.93
2018-05-26T08:36:51.694Z,21.71
2018-05-26T08:39:19.183Z,21.82
2018-05-26T08:41:46.671Z,22.04
2018-05-26T08:44:14.143Z,22.30
2018-05-26T08:46:41.618Z,21.93
2018-05-26T08:49:09.108Z,21.70
2018-05-26T08:51:36.585Z,22.24
2018-05-26T08:54:04.068Z,22.05
2018-05-26T08:56:31.550Z,22.11
2018-05-26T08:58:59.040Z,23.06
2018-05-26T09:01:26.527Z,23.03
2018-05-26T09:03:53.992Z,23.25
2018-05-26T09:06:21.516Z,23.13
2018-05-26T09:08:48.964Z,22.97
2018-05-26T09:11:16.468Z,22.73
2018-05-26T09:13:43.929Z,23.25
2018-05-26T09:16:11.404Z,23.48
2018-05-26T09:18:38.904Z,23.32
2018-05-26T09:21:06.376Z,23.15
2018-05-26T09:23:33.837Z,23.16
2018-05-26T09:26:01.320Z,23.16
2018-05-26T09:28:28.789Z,23.89
2018-05-26T09:30:56.276Z,23.95
2018-05-26T09:33:23.737Z,23.99
2018-05-26T09:35:51.215Z,23.85
2018-05-26T09:38:18.679Z,24.24
2018-05-26T09:40:46.156Z,24.63
2018-05-26T09:43:13.648Z,23.98
2018-05-26T09:45:41.424Z,23.91
2018-05-26T09:48:08.924Z,24.92
2018-05-26T09:50:36.392Z,24.32
2018-05-26T09:53:03.868Z,23.44
2018-05-26T09:55:31.349Z,23.62
2018-05-26T09:57:58.807Z,24.07
2018-05-26T10:00:26.310Z,23.87
2018-05-26T10:02:54.395Z,25.09
2018-05-26T10:05:21.872Z,24.60
2018-05-26T10:07:49.356Z,24.57
2018-05-26T10:10:16.817Z,24.80
2018-05-26T10:12:44.322Z,25.41
2018-05-26T10:15:11.797Z,25.78
2018-05-26T10:17:39.267Z,26.18
2018-05-26T10:20:06.761Z,25.99
2018-05-26T10:22:34.245Z,25.02
2018-05-26T10:25:01.958Z,24.98
2018-05-26T10:27:29.425Z,25.58
2018-05-26T10:29:57.696Z,25.02
2018-05-26T10:32:25.307Z,25.89
2018-05-26T10:34:52.775Z,26.59
2018-05-26T10:37:20.252Z,26.80
2018-05-26T10:39:47.715Z,26.39
2018-05-26T10:42:15.213Z,26.68
2018-05-26T10:44:42.688Z,26.54
2018-05-26T10:47:10.205Z,26.44
2018-05-26T10:49:37.651Z,26.60
2018-05-26T10:52:05.115Z,26.86
2018-05-26T10:54:32.601Z,26.99
2018-05-26T10:57:00.983Z,27.12
2018-05-26T10:59:28.479Z,26.78
2018-05-26T11:01:55.940Z,27.53
2018-05-26T11:04:23.410Z,27.53
2018-05-26T11:06:50.888Z,27.80
2018-05-26T11:09:18.357Z,26.76
2018-05-26T11:11:45.847Z,27.98
2018-05-26T11:14:13.312Z,26.78
2018-05-26T11:16:40.804Z,27.07
2018-05-26T11:19:08.305Z,27.60
2018-05-26T11:21:35.779Z,27.92
2018-05-26T11:24:03.385Z,28.33
2018-05-26T11:26:30.760Z,27.94
2018-05-26T11:28:58.270Z,28.90
2018-05-26T11:31:25.740Z,29.03
2018-05-26T11:33:53.200Z,29.40
2018-05-26T11:36:20.677Z,28.82
2018-05-26T11:38:48.147Z,29.54
2018-05-26T11:41:15.600Z,29.44
2018-05-26T11:43:43.175Z,29.85
2018-05-26T11:46:10.544Z,31.23
2018-05-26T11:48:38.022Z,29.55
2018-05-26T11:51:05.484Z,30.55
2018-05-26T11:53:33.346Z,30.21
2018-05-26T11:56:00.813Z,30.32
2018-05-26T11:58:28.278Z,30.85
2018-05-26T12:00:55.768Z,31.53
2018-05-26T12:03:23.223Z,31.50
2018-05-26T12:05:50.705Z,31.73
2018-05-26T12:08:18.160Z,30.05
2018-05-26T12:10:45.665Z,30.70
2018-05-26T12:13:13.123Z,30.77
2018-05-26T12:15:40.575Z,31.10
2018-05-26T12:18:08.058Z,31.38
2018-05-26T12:20:35.520Z,32.43
2018-05-26T12:23:02.984Z,30.03
2018-05-26T12:25:30.487Z,33.98
2018-05-26T12:27:57.935Z,33.58
2018-05-26T12:30:25.411Z,34.03
2018-05-26T12:32:52.873Z,34.54
2018-05-26T12:35:20.336Z,34.48
2018-05-26T12:37:47.807Z,34.60
2018-05-26T12:40:15.455Z,35.30
2018-05-26T12:42:42.945Z,35.17
2018-05-26T12:45:10.411Z,33.86
2018-05-26T12:47:37.871Z,34.58
2018-05-26T12:50:05.352Z,35.76
2018-05-26T12:52:32.815Z,34.65
2018-05-26T12:55:00.295Z,32.66
2018-05-26T12:57:27.747Z,34.07
2018-05-26T12:59:55.201Z,36.34
2018-05-26T13:02:22.681Z,34.72
2018-05-26T13:04:50.133Z,33.66
2018-05-26T13:07:17.613Z,32.99
2018-05-26T13:09:45.072Z,33.39
2018-05-26T13:12:12.544Z,34.16
2018-05-26T13:14:39.996Z,33.87
2018-05-26T13:17:07.454Z,34.50
2018-05-26T13:19:34.931Z,35.47
2018-05-26T13:22:02.383Z,36.12
2018-05-26T13:24:29.851Z,33.39
2018-05-26T13:26:57.310Z,33.11
2018-05-26T13:29:25.211Z,34.26
2018-05-26T13:31:52.671Z,33.39
2018-05-26T13:34:20.115Z,32.36
2018-05-26T13:36:47.602Z,31.86
2018-05-26T13:39:15.056Z,34.66
2018-05-26T13:41:42.526Z,32.50
2018-05-26T13:44:09.981Z,31.95
2018-05-26T13:46:37.436Z,33.75
2018-05-26T13:49:04.951Z,34.32
2018-05-26T13:51:32.451Z,32.78
2018-05-26T13:53:59.902Z,34.57
2018-05-26T13:56:27.415Z,34.34
2018-05-26T13:58:54.831Z,32.83
2018-05-26T14:01:23.349Z,32.27
2018-05-26T14:03:50.818Z,33.45
2018-05-26T14:06:18.280Z,32.79
2018-05-26T14:08:45.732Z,33.88
2018-05-26T14:11:13.200Z,36.08
2018-05-26T14:13:40.662Z,36.83
2018-05-26T14:16:08.116Z,35.68
2018-05-26T14:18:35.583Z,34.59
2018-05-26T14:21:03.037Z,35.10
2018-05-26T14:23:30.514Z,35.01
2018-05-26T14:25:57.980Z,37.37
2018-05-26T14:28:25.430Z,37.76
2018-05-26T14:30:53.379Z,37.44
2018-05-26T14:33:20.840Z,37.92
2018-05-26T14:35:48.309Z,34.38
2018-05-26T14:38:15.764Z,34.96
2018-05-26T14:40:43.222Z,36.10
2018-05-26T14:43:10.692Z,34.07
2018-05-26T14:45:38.146Z,34.08
2018-05-26T14:48:05.620Z,33.04
2018-05-26T14:50:33.296Z,33.49
2018-05-26T14:53:00.759Z,36.36
2018-05-26T14:55:28.222Z,37.11
2018-05-26T14:57:55.681Z,37.07
2018-05-26T15:00:23.169Z,35.57
2018-05-26T15:02:50.624Z,34.97
2018-05-26T15:05:18.070Z,35.15
2018-05-26T15:07:45.552Z,37.40
2018-05-26T15:10:13.004Z,36.11
2018-05-26T15:12:40.508Z,37.86
2018-05-26T15:15:07.960Z,35.61
2018-05-26T15:17:35.414Z,35.36
2018-05-26T15:20:02.889Z,35.84
2018-05-26T15:22:30.346Z,34.78
2018-05-26T15:24:57.824Z,34.71
2018-05-26T15:27:25.273Z,34.38
2018-05-26T15:29:52.730Z,32.76
2018-05-26T15:32:20.204Z,33.86
2018-05-26T15:34:47.662Z,35.60
2018-05-26T15:37:15.147Z,36.65
2018-05-26T15:39:42.601Z,37.74
2018-05-26T15:42:10.053Z,38.24
2018-05-26T15:44:38.007Z,38.64
2018-05-26T15:47:05.458Z,36.57
2018-05-26T15:49:32.928Z,37.20
2018-05-26T15:52:00.392Z,33.96
2018-05-26T15:54:27.875Z,34.78
2018-05-26T15:56:55.335Z,33.32
2018-05-26T15:59:22.803Z,33.80
2018-05-26T16:01:50.272Z,34.84
2018-05-26T16:04:17.720Z,34.32
2018-05-26T16:06:45.209Z,33.84
2018-05-26T16:09:12.675Z,33.76
2018-05-26T16:11:40.248Z,32.83
2018-05-26T16:14:07.700Z,32.66
2018-05-26T16:16:35.160Z,31.84
2018-05-26T16:19:02.648Z,33.91
2018-05-26T16:21:30.103Z,34.26
2018-05-26T16:23:57.931Z,34.52
2018-05-26T16:26:25.396Z,34.62
2018-05-26T16:28:52.869Z,34.87
2018-05-26T16:31:20.334Z,34.42
2018-05-26T16:33:47.853Z,34.30
2018-05-26T16:36:15.337Z,33.15
2018-05-26T16:38:42.802Z,31.84
2018-05-26T16:41:10.264Z,32.18
2018-05-26T16:43:37.744Z,31.95
2018-05-26T16:46:05.201Z,31.78
2018-05-26T16:48:32.676Z,32.11
2018-05-26T16:51:00.377Z,34.52
2018-05-26T16:53:27.866Z,35.26
2018-05-26T16:55:55.316Z,35.51
2018-05-26T16:58:22.788Z,33.55
2018-05-26T17:00:50.540Z,34.12
2018-05-26T17:03:17.997Z,34.39
2018-05-26T17:05:46.233Z,33.45
2018-05-26T17:08:13.691Z,34.84
2018-05-26T17:10:41.158Z,33.38
2018-05-26T17:13:08.644Z,32.66
2018-05-26T17:15:36.099Z,31.31
2018-05-26T17:18:03.577Z,31.67
2018-05-26T17:20:31.132Z,32.14
2018-05-26T17:22:58.583Z,33.19
2018-05-26T17:25:26.053Z,31.49
2018-05-26T17:27:53.509Z,31.81
2018-05-26T17:30:20.982Z,31.34
2018-05-26T17:32:48.444Z,31.25
2018-05-26T17:35:15.915Z,31.43
2018-05-26T17:37:43.391Z,32.91
2018-05-26T17:40:10.847Z,31.20
2018-05-26T17:42:38.323Z,29.41
2018-05-26T17:45:05.793Z,28.90
2018-05-26T17:47:33.255Z,27.79
2018-05-26T17:50:00.729Z,28.12
2018-05-26T17:52:28.188Z,27.59
2018-05-26T17:54:55.676Z,27.60
2018-05-26T17:57:23.142Z,27.00
2018-05-26T17:59:50.610Z,26.55
2018-05-26T18:02:18.083Z,26.65
2018-05-26T18:04:45.529Z,26.32
2018-05-26T18:07:13.031Z,26.12
2018-05-26T18:09:40.495Z,26.29
2018-05-26T18:12:07.960Z,26.85
2018-05-26T18:14:35.431Z,27.48
2018-05-26T18:17:02.889Z,27.15
2018-05-26T18:19:30.393Z,27.32
2018-05-26T18:21:57.849Z,26.83
2018-05-26T18:24:25.310Z,26.52
2018-05-26T18:26:52.796Z,26.16
2018-05-26T18:29:20.256Z,26.14
2018-05-26T18:31:47.755Z,25.92
2018-05-26T18:34:15.213Z,25.55
2018-05-26T18:36:42.693Z,25.30
2018-05-26T18:39:10.160Z,25.10
2018-05-26T18:41:37.628Z,24.82
2018-05-26T18:44:05.108Z,24.75
2018-05-26T18:46:32.559Z,24.27
2018-05-26T18:49:00.029Z,24.35
2018-05-26T18:51:27.773Z,24.26
2018-05-26T18:53:55.232Z,24.02
2018-05-26T18:56:22.717Z,23.97
2018-05-26T18:58:50.180Z,24.02
2018-05-26T19:01:17.641Z,24.06
2018-05-26T19:03:45.116Z,23.85
2018-05-26T19:06:12.564Z,23.88
2018-05-26T19:08:40.050Z,23.76
2018-05-26T19:11:07.521Z,23.72
2018-05-26T19:13:35.139Z,23.73
2018-05-26T19:16:02.596Z,23.71
2018-05-26T19:18:30.053Z,23.22
2018-05-26T19:20:57.564Z,22.98
2018-05-26T19:23:25.031Z,23.31
2018-05-26T19:25:52.505Z,23.34
2018-05-26T19:28:19.969Z,23.37
2018-05-26T19:30:47.429Z,23.37
2018-05-26T19:33:14.899Z,23.44
2018-05-26T19:35:42.357Z,23.74
2018-05-26T19:38:09.853Z,23.69
2018-05-26T19:40:37.321Z,23.69
2018-05-26T19:43:04.788Z,23.47
2018-05-26T19:45:32.259Z,23.58
2018-05-26T19:47:59.720Z,23.52
2018-05-26T19:50:27.220Z,23.41
2018-05-26T19:52:54.688Z,23.60
2018-05-26T19:55:22.147Z,23.45
2018-05-26T19:57:49.623Z,23.42
2018-05-26T20:00:17.092Z,23.48
2018-05-26T20:02:44.580Z,23.28
2018-05-26T20:05:12.043Z,23.12
2018-05-26T20:07:39.521Z,23.09
2018-05-26T20:10:07.009Z,23.11
2018-05-26T20:12:34.471Z,23.09
2018-05-26T20:15:01.960Z,22.97
2018-05-26T20:17:29.433Z,23.05
2018-05-26T20:19:56.936Z,22.85
2018-05-26T20:22:24.407Z,22.66
2018-05-26T20:24:51.868Z,22.74
2018-05-26T20:27:19.370Z,22.84
2018-05-26T20:29:46.828Z,22.76
2018-05-26T20:32:14.752Z,22.34
2018-05-26T20:34:42.244Z,22.39
2018-05-26T20:37:09.708Z,22.48
2018-05-26T20:39:37.185Z,22.48
2018-05-26T20:42:04.648Z,22.51
2018-05-26T20:44:32.132Z,22.42
2018-05-26T20:46:59.600Z,22.34
2018-05-26T20:49:27.075Z,22.23
2018-05-26T20:51:54.560Z,22.16
2018-05-26T20:54:22.036Z,22.14
2018-05-26T20:56:49.528Z,21.92
2018-05-26T20:59:17.013Z,21.91
2018-05-26T21:01:44.508Z,21.86
2018-05-26T21:04:11.966Z,21.88
2018-05-26T21:06:39.438Z,21.75
2018-05-26T21:09:06.935Z,21.77
2018-05-26T21:11:34.408Z,21.70
2018-05-26T21:14:02.213Z,21.59
2018-05-26T21:16:29.679Z,21.59
2018-05-26T21:18:57.147Z,21.55
2018-05-26T21:21:24.635Z,21.47
2018-05-26T21:23:52.096Z,21.56
2018-05-26T21:26:19.592Z,21.44
2018-05-26T21:28:47.043Z,21.35
2018-05-26T21:31:14.511Z,21.17
2018-05-26T21:33:42.005Z,21.03
2018-05-26T21:36:09.469Z,20.92
2018-05-26T21:38:36.957Z,21.01
2018-05-26T21:41:04.420Z,21.15
2018-05-26T21:43:31.887Z,21.05
2018-05-26T21:45:59.366Z,20.99
2018-05-26T21:48:26.828Z,20.91
2018-05-26T21:50:54.315Z,20.96
2018-05-26T21:53:21.788Z,21.00
2018-05-26T21:55:49.251Z,20.95
2018-05-26T21:58:16.740Z,20.89
2018-05-26T22:00:44.204Z,20.94
2018-05-26T22:03:11.684Z,21.02
2018-05-26T22:05:39.143Z,21.05
2018-05-26T22:08:06.621Z,20.88
2018-05-26T22:10:34.088Z,20.98
2018-05-26T22:13:01.571Z,20.86
2018-05-26T22:15:29.061Z,20.83
2018-05-26T22:17:56.529Z,20.71
2018-05-26T22:20:24.016Z,20.66
2018-05-26T22:22:51.475Z,20.69
2018-05-26T22:25:18.948Z,20.72
2018-05-26T22:27:46.424Z,20.70
2018-05-26T22:30:13.898Z,20.53
2018-05-26T22:32:41.387Z,20.47
2018-05-26T22:35:08.852Z,20.56
2018-05-26T22:37:36.316Z,20.52
2018-05-26T22:40:03.795Z,20.53
2018-05-26T22:42:31.276Z,20.53
2018-05-26T22:44:58.764Z,20.41
2018-05-26T22:47:26.234Z,20.47
2018-05-26T22:49:53.707Z,20.46
2018-05-26T22:52:21.193Z,20.34
2018-05-26T22:54:48.660Z,20.31
2018-05-26T22:57:16.141Z,20.29
2018-05-26T22:59:43.606Z,20.36
2018-05-26T23:02:12.001Z,20.29
2018-05-26T23:04:39.469Z,20.17
2018-05-26T23:07:06.977Z,20.19
2018-05-26T23:09:35.452Z,20.13
2018-05-26T23:12:02.922Z,20.22
2018-05-26T23:14:30.395Z,20.15
2018-05-26T23:16:57.860Z,20.01
2018-05-26T23:19:25.349Z,19.97
2018-05-26T23:21:52.828Z,19.94
2018-05-26T23:24:20.305Z,19.93
2018-05-26T23:26:47.793Z,19.79
2018-05-26T23:29:15.259Z,19.80
2018-05-26T23:31:43.052Z,19.76
2018-05-26T23:34:10.526Z,19.84
2018-05-26T23:36:38.126Z,19.82
2018-05-26T23:39:06.482Z,19.86
2018-05-26T23:41:33.965Z,19.89
2018-05-26T23:44:01.456Z,19.91
2018-05-26T23:46:28.932Z,19.76
2018-05-26T23:48:56.398Z,19.78
2018-05-26T23:51:23.885Z,19.75
2018-05-26T23:53:51.807Z,19.69
2018-05-26T23:56:19.296Z,19.65
2018-05-26T23:58:46.951Z,19.61
